Terminal Aerodrome Forecast
Issued by NWS Nashville, TN

Home | Current Version | Previous Version | Text Only | Print | Product List | Glossary On
Versions: 1 2 3 4 5 6 7 8 9 10 11 12 13 14 15 16 17 18 19 20 21 22 23 24 25 26 27 28 29
412
FTUS44 KOHX 210529 AAA
TAFCSV
TAF AMD
KCSV 210529Z 2105/2206 19009G18KT P6SM SCT025 BKN070 OVC080
     FM210700 20010KT P6SM BKN020 BKN080
     FM211900 19008KT 6SM -SHRA OVC020
     FM220100 14005KT 4SM -SHRA OVC003=

USA.gov is the U.S. government's official web portal to all federal, state and local government web resources and services.